Time;durP1;ratioP1;P1;durP2;ratioP2;P2;SDS_P1;SDS_P2;PMS_P1;PMS_P2;Temp;Humidity;BMP_temperature;BMP_pressure;BME280_temperature;BME280_humidity;BME280_pressure;Samples;Min_cycle;Max_cycle;Signal;HPM_P1;HPM_P2
2023/05/04 00:00:26;;;;;;;15.95;9.02;;;;;;;8.84;93.85;102011.38;5071832;28;20034;-74
2023/05/04 00:02:51;;;;;;;14.98;9.75;;;;;;;8.83;93.97;102006.22;5072155;28;20032;-75
2023/05/04 00:05:17;;;;;;;14.88;9.63;;;;;;;8.80;93.98;101998.56;5072314;28;20037;-74
2023/05/04 00:07:42;;;;;;;18.30;10.35;;;;;;;8.77;94.08;101994.44;5053910;28;20067;-75
2023/05/04 00:10:08;;;;;;;13.30;9.30;;;;;;;8.76;94.43;101990.09;5054338;28;20052;-75
2023/05/04 00:12:33;;;;;;;15.60;9.15;;;;;;;8.74;94.87;101992.09;5072204;28;20059;-76
2023/05/04 00:14:59;;;;;;;12.32;9.15;;;;;;;8.69;94.94;101984.63;5053729;28;20036;-74
2023/05/04 00:17:24;;;;;;;15.68;8.98;;;;;;;8.57;93.67;101961.19;5054197;28;20118;-74
2023/05/04 00:19:49;;;;;;;13.20;9.32;;;;;;;8.71;94.01;101978.28;5071279;28;20032;-74
2023/05/04 00:25:37;;;;;;;15.25;8.50;;;;;;;8.68;93.92;101966.97;5072428;28;20444;-75
2023/05/04 00:28:02;;;;;;;13.98;9.27;;;;;;;8.66;94.73;101960.97;5054056;28;20032;-75
2023/05/04 00:30:28;;;;;;;15.13;9.55;;;;;;;8.63;95.40;101958.63;5054105;28;20047;-75
2023/05/04 00:32:53;;;;;;;12.38;8.70;;;;;;;8.57;95.90;101955.84;5053335;28;20024;-74
2023/05/04 00:35:18;;;;;;;14.32;9.45;;;;;;;8.59;95.38;101960.00;5071014;28;20035;-74
2023/05/04 00:37:45;;;;;;;13.47;9.10;;;;;;;8.51;95.82;101952.03;5071166;28;20052;-74
2023/05/04 00:40:10;;;;;;;16.98;9.73;;;;;;;8.51;96.87;101956.53;5053932;28;20300;-74
2023/05/04 00:42:36;;;;;;;12.80;9.20;;;;;;;8.51;96.33;101962.72;5053776;28;20028;-75
2023/05/04 00:45:01;;;;;;;15.60;9.13;;;;;;;8.46;96.36;101962.41;5071087;28;20044;-75
2023/05/04 00:47:28;;;;;;;13.68;8.90;;;;;;;8.45;96.25;101963.41;5071642;28;20472;-74
2023/05/04 00:49:54;;;;;;;13.95;9.75;;;;;;;8.44;96.55;101953.75;5053492;28;20044;-75
2023/05/04 00:52:19;;;;;;;13.68;8.85;;;;;;;8.45;96.30;101949.25;5071334;28;20046;-73
2023/05/04 00:58:08;;;;;;;15.57;9.48;;;;;;;8.42;96.40;101954.94;5071943;28;20432;-74
2023/05/04 01:00:33;;;;;;;16.40;9.30;;;;;;;8.41;96.24;101954.09;5053441;28;20032;-74
2023/05/04 01:02:59;;;;;;;14.02;8.90;;;;;;;8.36;96.42;101943.91;5053016;28;20040;-74
2023/05/04 01:05:28;;;;;;;17.08;9.52;;;;;;;8.34;96.61;101945.94;5071479;28;20025;-74
2023/05/04 01:11:31;;;;;;;12.48;9.40;;;;;;;8.28;98.02;101946.59;5071753;28;20091;-73
2023/05/04 01:13:58;;;;;;;15.32;9.45;;;;;;;8.28;98.53;101940.44;5053520;28;20059;-74
2023/05/04 01:16:23;;;;;;;13.35;9.50;;;;;;;8.23;97.81;101935.63;5070816;28;20059;-74
2023/05/04 01:22:10;;;;;;;15.35;9.50;;;;;;;8.15;99.85;101932.16;5071696;28;20102;-74
2023/05/04 01:24:36;;;;;;;15.63;9.95;;;;;;;8.11;98.64;101925.53;5071338;28;20245;-74
2023/05/04 01:27:10;;;;;;;14.82;8.70;;;;;;;8.03;99.72;101918.34;5070533;28;20103;-74
2023/05/04 01:29:44;;;;;;;18.50;9.88;;;;;;;8.00;100.00;101922.19;5053332;28;20124;-74
2023/05/04 01:32:12;;;;;;;15.05;9.40;;;;;;;7.94;100.00;101922.88;5071260;28;20071;-75
2023/05/04 01:34:39;;;;;;;15.88;10.13;;;;;;;7.90;100.00;101924.22;5052743;28;20041;-75
2023/05/04 01:37:05;;;;;;;16.88;9.27;;;;;;;7.71;100.00;101904.13;5053143;28;20029;-75
2023/05/04 01:39:30;;;;;;;18.38;10.23;;;;;;;7.81;100.00;101924.41;5069068;28;20378;-75
2023/05/04 01:41:56;;;;;;;16.77;9.85;;;;;;;7.80;100.00;101934.22;5071133;28;20060;-75
2023/05/04 01:44:21;;;;;;;14.35;9.30;;;;;;;7.78;100.00;101926.41;5053267;28;20063;-76
2023/05/04 01:46:46;;;;;;;14.75;10.18;;;;;;;7.74;100.00;101919.75;5055234;28;20550;-75
2023/05/04 01:49:12;;;;;;;19.33;9.77;;;;;;;7.76;100.00;101925.72;5074557;28;20037;-73
2023/05/04 01:51:37;;;;;;;16.05;9.32;;;;;;;7.71;100.00;101928.06;5073660;28;20048;-74
2023/05/04 01:54:02;;;;;;;16.00;9.88;;;;;;;7.54;100.00;101899.00;5056449;28;20025;-74
2023/05/04 01:56:27;;;;;;;13.93;9.18;;;;;;;7.60;100.00;101917.78;5074418;28;20021;-75
2023/05/04 01:58:53;;;;;;;15.32;9.85;;;;;;;7.63;100.00;101928.09;5073540;28;20048;-74
2023/05/04 02:01:18;;;;;;;17.00;9.23;;;;;;;7.57;100.00;101920.78;5056382;28;20032;-74
2023/05/04 02:03:43;;;;;;;15.65;10.05;;;;;;;7.59;100.00;101925.94;5055571;28;20075;-75
2023/05/04 02:09:30;;;;;;;12.63;9.00;;;;;;;7.56;100.00;101920.97;5074105;28;20294;-75
2023/05/04 02:11:56;;;;;;;18.38;9.07;;;;;;;7.49;100.00;101914.63;5056029;28;20064;-75
2023/05/04 02:14:21;;;;;;;18.80;9.63;;;;;;;7.47;100.00;101917.44;5074036;28;20469;-75
2023/05/04 02:16:46;;;;;;;16.43;9.40;;;;;;;7.42;100.00;101914.47;5055648;28;20068;-74
2023/05/04 02:19:11;;;;;;;18.73;9.60;;;;;;;7.42;100.00;101923.28;5074150;28;20266;-75
2023/05/04 02:24:58;;;;;;;18.17;9.07;;;;;;;7.30;100.00;101913.97;5074218;28;20102;-74
2023/05/04 02:27:24;;;;;;;15.18;10.10;;;;;;;7.33;100.00;101916.31;5073882;28;20508;-74
2023/05/04 02:29:49;;;;;;;11.73;9.30;;;;;;;7.30;100.00;101913.97;5073155;28;20056;-74
2023/05/04 02:32:15;;;;;;;16.00;10.50;;;;;;;7.24;100.00;101897.84;5073882;28;20106;-74
2023/05/04 02:38:02;;;;;;;14.65;9.82;;;;;;;7.23;100.00;101898.81;5074075;28;20400;-73
2023/05/04 02:40:27;;;;;;;15.98;9.55;;;;;;;7.17;100.00;101900.31;5072897;28;20032;-73
2023/05/04 02:42:52;;;;;;;12.95;9.85;;;;;;;7.14;100.00;101898.81;5073625;28;20044;-76
2023/05/04 02:45:18;;;;;;;17.05;9.75;;;;;;;7.12;100.00;101900.00;5073648;28;20528;-73
2023/05/04 02:47:44;;;;;;;16.17;9.70;;;;;;;7.08;100.00;101896.84;5072640;28;20040;-73
2023/05/04 02:50:09;;;;;;;13.98;9.85;;;;;;;7.07;100.00;101905.81;5073597;28;20037;-74
2023/05/04 02:52:34;;;;;;;17.20;10.30;;;;;;;7.03;100.00;101899.16;5073194;28;20028;-74
2023/05/04 02:55:01;;;;;;;13.65;9.82;;;;;;;6.96;100.00;101894.66;5055416;28;20551;-74
2023/05/04 02:57:26;;;;;;;16.48;9.52;;;;;;;6.90;100.00;101896.13;5072846;28;20021;-74
2023/05/04 02:59:52;;;;;;;16.63;9.65;;;;;;;6.94;100.00;101893.97;5072826;28;20043;-73
2023/05/04 03:05:39;;;;;;;18.02;9.90;;;;;;;6.81;100.00;101889.97;5070096;28;20068;-74
2023/05/04 03:08:04;;;;;;;20.75;10.07;;;;;;;6.80;100.00;101901.59;5055438;28;20033;-74
2023/05/04 03:10:29;;;;;;;16.15;9.52;;;;;;;6.78;100.00;101894.78;5055405;28;20033;-75
2023/05/04 03:12:55;;;;;;;16.13;10.25;;;;;;;6.74;100.00;101888.16;5054659;28;20091;-74
2023/05/04 03:15:20;;;;;;;18.65;9.05;;;;;;;6.76;100.00;101905.59;5073323;28;20023;-74
2023/05/04 03:17:45;;;;;;;13.63;9.20;;;;;;;6.68;100.00;101889.63;5072313;28;20469;-74
2023/05/04 03:20:12;;;;;;;16.15;9.60;;;;;;;6.75;100.00;101895.94;5055057;28;20507;-74
2023/05/04 03:22:37;;;;;;;16.05;9.40;;;;;;;6.67;100.00;101887.97;5073094;28;20095;-74
2023/05/04 03:25:02;;;;;;;16.85;9.73;;;;;;;6.65;100.00;101884.66;5054606;28;20048;-74
2023/05/04 03:27:28;;;;;;;15.05;10.68;;;;;;;6.61;100.00;101883.28;5055069;28;20029;-74
2023/05/04 03:29:53;;;;;;;16.10;10.20;;;;;;;6.61;100.00;101882.44;5072197;28;20041;-74
2023/05/04 03:32:19;;;;;;;17.92;10.45;;;;;;;6.59;100.00;101876.47;5072817;28;20465;-74
2023/05/04 03:34:45;;;;;;;15.10;10.50;;;;;;;6.49;100.00;101866.00;5072822;28;20029;-74
2023/05/04 03:37:10;;;;;;;15.57;9.95;;;;;;;6.52;100.00;101861.19;5054355;28;20420;-75
2023/05/04 03:39:36;;;;;;;19.40;10.20;;;;;;;6.48;100.00;101865.16;5072803;28;20048;-74
2023/05/04 03:42:01;;;;;;;16.27;10.93;;;;;;;6.46;100.00;101866.31;5072146;28;20048;-75
2023/05/04 03:44:26;;;;;;;18.45;10.55;;;;;;;6.45;100.00;101865.47;5054873;28;20092;-75
2023/05/04 03:46:52;;;;;;;15.13;10.30;;;;;;;6.42;100.00;101863.16;5072695;28;20024;-75
2023/05/04 03:49:17;;;;;;;16.73;10.20;;;;;;;6.45;100.00;101870.81;5071934;28;20283;-74
2023/05/04 03:51:42;;;;;;;15.38;10.90;;;;;;;6.44;100.00;101863.81;5072737;28;20447;-74
2023/05/04 03:54:08;;;;;;;17.98;10.63;;;;;;;6.41;100.00;101855.34;5072659;28;20035;-75
2023/05/04 03:56:33;;;;;;;18.33;11.10;;;;;;;6.39;100.00;101846.72;5046303;28;20131;-75
2023/05/04 03:58:58;;;;;;;18.92;10.32;;;;;;;6.37;100.00;101851.34;5054548;28;20035;-75
2023/05/04 04:01:24;;;;;;;15.27;10.57;;;;;;;6.37;100.00;101864.63;5071493;28;20051;-74
2023/05/04 04:03:49;;;;;;;18.80;10.75;;;;;;;6.35;100.00;101861.28;5054538;28;20118;-74
2023/05/04 04:06:15;;;;;;;17.52;10.43;;;;;;;6.35;100.00;101858.63;5072313;28;20031;-74
2023/05/04 04:08:40;;;;;;;17.35;10.20;;;;;;;6.34;100.00;101867.59;5070584;28;20028;-74
2023/05/04 04:11:05;;;;;;;15.48;10.68;;;;;;;6.31;100.00;101855.47;5054151;28;20653;-74
2023/05/04 04:13:31;;;;;;;16.08;10.45;;;;;;;6.37;100.00;101859.31;5053679;28;20043;-74
2023/05/04 04:15:56;;;;;;;16.05;10.63;;;;;;;6.35;100.00;101862.13;5072293;28;20465;-74
2023/05/04 04:21:43;;;;;;;15.32;10.60;;;;;;;6.35;100.00;101855.97;5072439;28;20154;-75
2023/05/04 04:24:08;;;;;;;19.65;10.90;;;;;;;6.39;100.00;101858.16;5071950;28;20528;-74
2023/05/04 04:26:34;;;;;;;14.95;9.50;;;;;;;6.39;100.00;101846.72;5071122;28;20037;-74
2023/05/04 04:32:21;;;;;;;24.40;10.45;;;;;;;6.45;100.00;101846.88;5072355;28;20058;-75
2023/05/04 04:34:47;;;;;;;15.27;9.68;;;;;;;6.50;100.00;101846.41;5071891;28;20469;-75
2023/05/04 04:37:12;;;;;;;17.13;11.13;;;;;;;6.54;100.00;101845.06;5053588;28;20020;-74
2023/05/04 04:42:59;;;;;;;15.60;9.70;;;;;;;6.70;100.00;101836.31;5072139;28;20051;-76
2023/05/04 04:45:25;;;;;;;16.80;11.25;;;;;;;6.88;100.00;101849.44;5071102;28;20465;-75
2023/05/04 04:47:50;;;;;;;19.00;10.10;;;;;;;6.99;100.00;101844.66;5053869;28;20032;-74
2023/05/04 04:50:16;;;;;;;15.30;10.45;;;;;;;7.13;100.00;101846.63;5053305;28;20421;-76
2023/05/04 04:52:41;;;;;;;15.80;10.40;;;;;;;7.23;100.00;101837.63;5071653;28;20035;-76
2023/05/04 04:55:07;;;;;;;17.05;9.93;;;;;;;7.35;100.00;101841.63;5053903;28;20027;-75
2023/05/04 04:57:33;;;;;;;17.95;9.85;;;;;;;7.36;100.00;101843.28;5070992;28;20492;-73
2023/05/04 04:59:59;;;;;;;17.63;10.45;;;;;;;7.43;100.00;101841.63;5053844;28;20456;-75
2023/05/04 05:02:25;;;;;;;16.10;9.98;;;;;;;7.40;100.00;101842.78;5070981;28;20044;-74
2023/05/04 05:04:50;;;;;;;16.08;10.10;;;;;;;7.44;100.00;101848.59;5071678;28;20104;-74
2023/05/04 05:07:15;;;;;;;13.45;10.00;;;;;;;7.37;100.00;101834.31;5053828;28;20092;-75
2023/05/04 05:09:41;;;;;;;13.50;8.98;;;;;;;7.44;100.00;101843.28;5071148;28;20040;-74
2023/05/04 05:15:28;;;;;;;15.20;9.52;;;;;;;7.77;100.00;101850.19;5071517;28;20035;-73
2023/05/04 05:17:53;;;;;;;14.55;9.82;;;;;;;7.84;100.00;101841.53;5071407;28;20025;-76
2023/05/04 05:20:19;;;;;;;15.45;9.93;;;;;;;7.99;100.00;101850.47;5072106;28;20716;-74
2023/05/04 05:26:06;;;;;;;17.25;10.00;;;;;;;8.12;100.00;101853.44;5075227;28;20035;-74
2023/05/04 05:28:31;;;;;;;16.83;10.02;;;;;;;8.22;100.00;101859.38;5056416;28;20033;-74
2023/05/04 05:30:56;;;;;;;12.80;9.23;;;;;;;8.32;100.00;101862.63;5057068;28;20115;-74
2023/05/04 05:33:22;;;;;;;14.10;9.83;;;;;;;8.45;100.00;101856.78;5074064;28;20040;-75
2023/05/04 05:35:48;;;;;;;15.40;10.13;;;;;;;8.52;100.00;101852.41;5057069;28;20642;-74
2023/05/04 05:38:15;;;;;;;16.40;10.02;;;;;;;8.60;100.00;101857.69;5056709;28;20209;-74
2023/05/04 05:40:40;;;;;;;14.45;10.00;;;;;;;8.72;100.00;101852.81;5056159;28;20046;-74
2023/05/04 05:43:05;;;;;;;15.73;9.82;;;;;;;8.85;100.00;101861.03;5074627;28;20384;-75
2023/05/04 05:45:31;;;;;;;14.57;9.63;;;;;;;9.11;100.00;101863.34;5055920;28;20051;-75
2023/05/04 05:47:56;;;;;;;15.15;9.75;;;;;;;9.35;100.00;101848.13;5056646;28;20453;-75
2023/05/04 05:50:22;;;;;;;19.95;10.35;;;;;;;9.53;100.00;101859.28;5074633;28;20813;-74
2023/05/04 05:52:48;;;;;;;16.70;9.55;;;;;;;9.66;98.65;101848.00;5055902;28;20036;-75
2023/05/04 05:55:13;;;;;;;13.40;8.82;;;;;;;9.70;97.74;101850.09;5056528;28;20041;-75
2023/05/04 05:57:39;;;;;;;16.90;10.02;;;;;;;9.86;98.49;101847.28;5073922;28;20075;-73
2023/05/04 06:00:05;;;;;;;13.45;8.50;;;;;;;9.96;97.53;101840.81;5074435;28;20106;-75
2023/05/04 06:02:30;;;;;;;14.07;9.98;;;;;;;10.10;96.31;101838.09;5074404;28;20028;-74
2023/05/04 06:04:55;;;;;;;14.90;9.43;;;;;;;10.35;96.90;101848.50;5073560;28;20072;-74
2023/05/04 06:07:22;;;;;;;13.60;9.18;;;;;;;10.54;95.29;101842.56;5056344;28;20024;-74
2023/05/04 06:09:48;;;;;;;18.83;9.70;;;;;;;10.68;92.54;101840.84;5074156;28;20037;-75
2023/05/04 06:12:15;;;;;;;16.23;9.43;;;;;;;10.74;92.34;101835.59;5055673;28;20083;-75
2023/05/04 06:14:41;;;;;;;13.68;9.32;;;;;;;10.81;91.68;101836.50;5055993;28;20024;-74
2023/05/04 06:17:07;;;;;;;13.15;9.68;;;;;;;10.88;92.44;101830.38;5055470;28;20090;-74
2023/05/04 06:19:37;;;;;;;14.52;9.43;;;;;;;10.89;91.17;101832.84;5074025;28;20108;-75
2023/05/04 06:22:03;;;;;;;15.60;9.88;;;;;;;11.11;92.06;101822.97;5074085;28;20044;-75
2023/05/04 06:24:28;;;;;;;15.98;9.60;;;;;;;11.54;89.93;101823.69;5073190;28;20040;-74
2023/05/04 06:26:54;;;;;;;16.13;8.80;;;;;;;11.79;87.79;101818.72;5073856;28;20405;-75
2023/05/04 06:29:20;;;;;;;14.15;9.15;;;;;;;12.04;85.00;101817.19;5055365;28;20052;-75
2023/05/04 06:31:46;;;;;;;20.05;9.90;;;;;;;12.04;85.20;101816.38;5073166;28;20057;-74
2023/05/04 06:34:11;;;;;;;12.73;8.77;;;;;;;12.13;85.56;101817.00;5073673;28;20032;-73
2023/05/04 06:36:36;;;;;;;15.32;8.20;;;;;;;12.34;83.52;101787.41;5072976;28;20059;-74
2023/05/04 06:39:02;;;;;;;14.07;8.60;;;;;;;12.72;80.39;101809.13;5055801;28;20059;-74
2023/05/04 06:41:27;;;;;;;13.68;8.85;;;;;;;12.83;80.83;101811.22;5054869;28;20044;-74
2023/05/04 06:43:53;;;;;;;19.30;8.45;;;;;;;12.96;78.12;101818.47;5073690;28;20060;-74
2023/05/04 06:46:18;;;;;;;14.30;8.57;;;;;;;12.95;79.24;101809.56;5073791;28;20029;-74
2023/05/04 06:48:43;;;;;;;14.47;9.40;;;;;;;12.95;79.32;101800.69;5055019;28;20279;-74
2023/05/04 06:51:09;;;;;;;15.35;8.57;;;;;;;12.88;78.49;101803.38;5055677;28;20796;-74
2023/05/04 06:53:34;;;;;;;11.23;8.82;;;;;;;12.98;77.00;101813.72;5055138;28;20020;-74
2023/05/04 06:55:59;;;;;;;16.42;8.98;;;;;;;13.26;76.73;101803.59;5073243;28;20044;-74
2023/05/04 06:58:25;;;;;;;13.57;8.60;;;;;;;13.44;75.15;101792.22;5073553;28;20026;-74
2023/05/04 07:00:51;;;;;;;19.70;9.60;;;;;;;13.62;74.88;101800.47;5054772;28;20794;-74
2023/05/04 07:03:16;;;;;;;15.90;8.60;;;;;;;13.94;73.54;101806.78;5055347;28;20024;-73
2023/05/04 07:05:44;;;;;;;13.57;9.30;;;;;;;14.21;73.43;101795.91;5073437;28;20078;-74
2023/05/04 07:11:31;;;;;;;17.75;8.27;;;;;;;14.32;69.45;101791.72;5073816;28;20040;-73
2023/05/04 07:13:57;;;;;;;13.40;8.25;;;;;;;14.38;68.86;101786.28;5072525;28;20041;-74
2023/05/04 07:16:23;;;;;;;12.15;8.18;;;;;;;14.48;69.69;101769.72;5055324;28;20052;-73
2023/05/04 07:18:48;;;;;;;13.82;8.55;;;;;;;14.73;68.78;101784.03;5072305;28;20559;-73
2023/05/04 07:21:13;;;;;;;17.33;8.38;;;;;;;15.10;68.38;101770.69;5072990;28;20175;-75
2023/05/04 07:23:39;;;;;;;8.85;7.30;;;;;;;15.92;65.86;101782.09;5055156;28;20123;-76
2023/05/04 07:26:07;;;;;;;13.18;8.15;;;;;;;16.35;59.19;101781.94;5072089;28;20051;-75
2023/05/04 07:28:32;;;;;;;19.13;8.68;;;;;;;15.89;60.34;101777.94;5054873;28;20033;-73
2023/05/04 07:30:58;;;;;;;11.93;8.20;;;;;;;16.09;62.33;101772.31;5054441;28;20036;-74
2023/05/04 07:33:24;;;;;;;11.90;7.50;;;;;;;16.68;59.14;101776.88;5072832;28;20473;-74
2023/05/04 07:35:55;;;;;;;14.93;8.60;;;;;;;17.14;56.38;101769.09;5073160;28;20351;-74
2023/05/04 07:38:20;;;;;;;15.43;7.32;;;;;;;17.83;55.60;101775.50;5072133;28;20390;-74
2023/05/04 07:40:45;;;;;;;13.23;7.93;;;;;;;18.88;53.88;101770.44;5072848;28;20028;-75
2023/05/04 07:43:10;;;;;;;13.23;8.43;;;;;;;19.03;51.44;101771.75;5072020;28;20063;-75
2023/05/04 07:45:36;;;;;;;12.27;7.77;;;;;;;18.81;51.95;101777.09;5054666;28;20279;-75
2023/05/04 07:48:01;;;;;;;12.15;7.85;;;;;;;18.77;51.06;101779.47;5072877;28;20350;-75
2023/05/04 07:50:27;;;;;;;11.77;7.80;;;;;;;18.64;49.79;101782.50;5071919;28;20400;-73
2023/05/04 07:52:53;;;;;;;10.57;7.45;;;;;;;18.69;51.23;101777.16;5054558;28;20337;-73
2023/05/04 07:55:18;;;;;;;10.50;7.38;;;;;;;18.89;49.90;101765.84;5072460;28;20486;-74
2023/05/04 07:57:43;;;;;;;16.00;7.88;;;;;;;19.27;50.03;101767.78;5071776;28;20131;-73
2023/05/04 08:00:09;;;;;;;11.82;8.43;;;;;;;19.73;49.55;101771.16;5072136;28;20028;-75
2023/05/04 08:02:35;;;;;;;15.35;7.53;;;;;;;20.53;47.18;101767.72;5071494;28;20052;-74
2023/05/04 08:05:00;;;;;;;9.85;7.18;;;;;;;21.54;46.70;101777.72;5054373;28;20047;-74
2023/05/04 08:07:25;;;;;;;8.90;8.00;;;;;;;21.94;40.90;101772.44;5072359;28;20035;-75
2023/05/04 08:09:52;;;;;;;14.10;8.23;;;;;;;21.90;41.93;101765.06;5054007;28;20044;-74
2023/05/04 08:12:18;;;;;;;11.95;7.45;;;;;;;22.17;39.79;101764.91;5064270;28;20306;-74
2023/05/04 08:14:46;;;;;;;16.30;8.17;;;;;;;21.64;40.42;101764.16;5053711;28;20188;-74
2023/05/04 08:17:11;;;;;;;11.50;8.10;;;;;;;21.38;42.94;101748.78;5072292;28;20012;-73
2023/05/04 08:19:36;;;;;;;9.90;7.57;;;;;;;21.45;39.97;101758.38;5072061;28;20529;-72
2023/05/04 08:22:02;;;;;;;8.40;7.23;;;;;;;21.55;40.40;101757.59;5053558;28;20336;-74
2023/05/04 08:24:28;;;;;;;11.63;7.22;;;;;;;21.53;39.72;101755.13;5054255;28;20035;-74
2023/05/04 08:30:15;;;;;;;14.05;8.02;;;;;;;21.38;41.47;101741.44;5072684;28;20649;-74
2023/05/04 08:32:41;;;;;;;12.93;8.07;;;;;;;21.67;41.19;101746.47;5071683;28;20020;-74
2023/05/04 08:35:06;;;;;;;10.80;7.23;;;;;;;22.01;41.27;101744.16;5053725;28;20082;-74
2023/05/04 08:37:32;;;;;;;11.90;7.78;;;;;;;22.94;41.46;101741.28;5053965;28;20294;-74
2023/05/04 08:39:57;;;;;;;14.90;8.73;;;;;;;23.34;37.99;101738.47;5071127;28;20079;-75
2023/05/04 08:45:44;;;;;;;14.50;8.60;;;;;;;24.43;36.67;101733.03;5071480;28;20123;-74
2023/05/04 08:48:10;;;;;;;9.98;8.00;;;;;;;24.84;34.26;101729.94;5071723;28;20432;-74
2023/05/04 08:50:36;;;;;;;13.60;7.60;;;;;;;25.08;33.87;101722.63;5053901;28;20055;-72
2023/05/04 08:53:07;;;;;;;10.68;7.55;;;;;;;24.82;35.54;101713.81;5070822;28;20047;-74
2023/05/04 08:55:35;;;;;;;17.85;8.65;;;;;;;24.64;34.78;101701.69;5070815;28;20032;-73
2023/05/04 08:58:06;;;;;;;11.30;7.35;;;;;;;24.04;35.72;101705.69;5070674;28;20059;-76
2023/05/04 09:00:32;;;;;;;11.63;7.95;;;;;;;23.68;36.80;101689.47;5053305;28;20039;-74
2023/05/04 09:06:20;;;;;;;13.25;8.40;;;;;;;23.82;36.51;101692.41;5071868;28;20558;-73
2023/05/04 09:08:45;;;;;;;9.80;7.70;;;;;;;23.38;36.21;101690.41;5070135;28;20016;-76
2023/05/04 09:11:10;;;;;;;14.32;7.93;;;;;;;23.35;37.21;101685.50;5070599;28;20127;-73
2023/05/04 09:13:36;;;;;;;12.37;7.80;;;;;;;23.35;37.06;101685.50;5053573;28;20147;-74
2023/05/04 09:16:02;;;;;;;10.88;7.70;;;;;;;23.30;39.77;101687.44;5070787;28;20366;-74
2023/05/04 09:18:44;;;;;;;11.25;8.23;;;;;;;23.57;37.86;101690.63;5071429;28;20028;-74
2023/05/04 09:21:10;;;;;;;11.75;7.93;;;;;;;24.24;36.80;101691.84;5071371;28;20033;-74
2023/05/04 09:23:49;;;;;;;9.40;7.88;;;;;;;24.83;34.83;101687.28;5052796;28;20114;-75
2023/05/04 09:29:39;;;;;;;11.93;8.55;;;;;;;25.38;34.98;101685.88;5071562;28;20067;-74
2023/05/04 09:32:06;;;;;;;11.48;8.10;;;;;;;25.82;33.05;101695.75;5071369;28;20093;-73
2023/05/04 09:34:32;;;;;;;11.63;7.80;;;;;;;25.74;33.70;101689.00;5070620;28;20021;-74
2023/05/04 09:37:02;;;;;;;11.82;8.45;;;;;;;25.96;34.28;101691.13;5053286;28;20032;-74
2023/05/04 09:39:29;;;;;;;12.20;8.40;;;;;;;26.42;32.83;101676.75;5071328;28;20457;-74
2023/05/04 09:41:55;;;;;;;15.25;9.25;;;;;;;26.85;33.01;101667.16;5070521;28;20071;-74
2023/05/04 09:47:43;;;;;;;11.95;7.85;;;;;;;26.62;33.40;101684.63;5071285;28;20117;-74
2023/05/04 09:50:20;;;;;;;13.32;9.27;;;;;;;26.90;33.13;101676.44;5053213;28;20037;-73
2023/05/04 09:52:46;;;;;;;13.05;7.97;;;;;;;27.62;29.87;101671.97;5071090;28;20473;-75
2023/05/04 09:55:15;;;;;;;17.67;8.50;;;;;;;27.72;30.52;101674.50;5070213;28;20051;-74
2023/05/04 10:01:02;;;;;;;12.07;8.82;;;;;;;28.13;29.64;101657.06;5070931;28;20087;-74
2023/05/04 10:03:28;;;;;;;11.63;8.68;;;;;;;27.89;31.43;101664.78;5070733;28;20025;-73
2023/05/04 10:05:53;;;;;;;11.18;8.98;;;;;;;26.76;30.95;101652.53;5070237;28;20492;-74
2023/05/04 10:08:19;;;;;;;11.65;8.48;;;;;;;27.43;32.23;101650.09;5072919;28;20416;-75
2023/05/04 10:10:44;;;;;;;12.13;9.20;;;;;;;28.15;31.82;101631.97;5074290;28;20048;-75
2023/05/04 10:16:50;;;;;;;11.50;9.43;;;;;;;28.89;28.76;101635.00;5074630;28;20035;-74
2023/05/04 10:19:27;;;;;;;15.55;8.60;;;;;;;28.36;31.28;101614.69;5073375;28;20040;-75
2023/05/04 10:22:13;;;;;;;13.52;8.85;;;;;;;27.85;29.79;101620.59;5072807;28;20123;-75
2023/05/04 10:25:18;;;;;;;12.52;8.75;;;;;;;27.74;30.75;101605.47;5073238;28;20047;-74
2023/05/04 10:28:00;;;;;;;12.60;9.13;;;;;;;27.29;32.65;101604.53;5055926;28;20020;-74
2023/05/04 10:30:26;;;;;;;14.23;9.05;;;;;;;27.11;32.79;101587.06;5055326;28;20040;-74
2023/05/04 10:32:56;;;;;;;12.95;9.40;;;;;;;25.55;33.14;101586.78;5073996;28;20388;-74
2023/05/04 10:35:21;;;;;;;12.60;8.85;;;;;;;24.84;35.29;101580.28;5073734;28;20081;-75
2023/05/04 10:37:53;;;;;;;14.55;9.70;;;;;;;24.71;36.71;101564.56;5055300;28;20044;-75
2023/05/04 10:40:31;;;;;;;14.40;9.80;;;;;;;24.51;37.89;101582.00;5065448;28;20074;-74
2023/05/04 10:42:56;;;;;;;12.90;9.45;;;;;;;25.18;36.42;101569.22;5072993;28;20067;-74
2023/05/04 10:45:36;;;;;;;16.27;9.15;;;;;;;25.78;37.18;101563.19;5055904;28;20032;-74
2023/05/04 10:48:03;;;;;;;11.98;8.65;;;;;;;25.49;33.12;101561.38;5073765;28;20028;-75
2023/05/04 10:50:40;;;;;;;12.73;8.98;;;;;;;25.06;35.91;101566.09;5055189;28;20051;-75
2023/05/04 10:53:05;;;;;;;14.63;9.68;;;;;;;24.29;36.04;101540.69;5072423;28;20102;-75
2023/05/04 10:55:39;;;;;;;12.63;9.38;;;;;;;23.63;39.00;101544.78;5072753;28;20068;-74
2023/05/04 10:58:05;;;;;;;12.70;7.97;;;;;;;23.61;37.03;101529.78;5073419;28;20044;-74
2023/05/04 11:03:52;;;;;;;10.75;8.48;;;;;;;23.08;38.95;101519.41;5073494;28;20274;-74
2023/05/04 11:06:21;;;;;;;12.80;8.18;;;;;;;22.98;38.64;101515.94;5073314;28;20032;-76
2023/05/04 11:08:48;;;;;;;10.60;7.35;;;;;;;23.01;38.22;101513.47;5072588;28;20052;-74
2023/05/04 11:11:13;;;;;;;14.93;8.00;;;;;;;23.30;39.72;101526.41;5073378;28;20145;-76
2023/05/04 11:13:46;;;;;;;10.23;6.93;;;;;;;23.62;37.30;101504.91;5072455;28;20127;-76
2023/05/04 11:19:33;;;;;;;11.73;6.97;;;;;;;23.60;38.21;101500.84;5073119;28;20043;-74
2023/05/04 11:22:00;;;;;;;9.70;6.82;;;;;;;23.17;36.38;101485.00;5055178;28;20024;-75
2023/05/04 11:24:35;;;;;;;9.68;6.43;;;;;;;23.47;39.31;101491.34;5073228;28;20103;-74
2023/05/04 11:27:02;;;;;;;13.00;7.30;;;;;;;23.54;39.74;101488.28;5054382;28;20059;-75
2023/05/04 11:29:27;;;;;;;10.73;6.85;;;;;;;23.37;38.29;101486.75;5073151;28;20063;-74
2023/05/04 11:31:54;;;;;;;11.67;6.70;;;;;;;23.45;36.63;101490.81;5072200;28;20493;-75
2023/05/04 11:34:19;;;;;;;11.38;6.35;;;;;;;23.35;38.50;101497.16;5073020;28;20612;-74
2023/05/04 11:36:46;;;;;;;8.98;6.47;;;;;;;23.37;37.88;101488.69;5054837;28;20028;-74
2023/05/04 11:39:12;;;;;;;11.10;6.85;;;;;;;23.51;37.45;101483.41;5054410;28;20136;-75
2023/05/04 11:41:37;;;;;;;14.27;6.57;;;;;;;23.55;37.20;101471.63;5072942;28;20489;-74
2023/05/04 11:44:04;;;;;;;11.45;7.10;;;;;;;23.96;36.73;101501.34;5072091;28;20079;-74
2023/05/04 11:46:31;;;;;;;12.10;6.53;;;;;;;24.61;34.20;101482.66;5072706;28;20484;-75
2023/05/04 11:48:58;;;;;;;12.23;6.95;;;;;;;24.63;34.06;101492.19;5071537;28;20370;-74
2023/05/04 11:51:23;;;;;;;11.82;6.03;;;;;;;24.67;33.32;101468.59;5072098;28;20036;-76
2023/05/04 11:53:49;;;;;;;10.38;6.47;;;;;;;24.96;33.07;101476.69;5072884;28;20511;-75
2023/05/04 11:56:15;;;;;;;8.23;6.28;;;;;;;24.95;34.25;101466.84;5072067;28;20021;-76
2023/05/04 11:58:40;;;;;;;13.00;6.65;;;;;;;25.09;32.95;101471.63;5072474;28;20040;-75
2023/05/04 12:01:06;;;;;;;9.45;6.70;;;;;;;24.84;33.90;101472.75;5072576;28;20020;-75
2023/05/04 12:03:33;;;;;;;8.37;6.90;;;;;;;24.87;33.71;101439.34;5071732;28;20036;-75
2023/05/04 12:06:00;;;;;;;9.30;5.72;;;;;;;24.74;34.15;101449.09;5054489;28;20028;-74
2023/05/04 12:11:55;;;;;;;10.65;6.53;;;;;;;24.09;35.61;101446.03;5072757;28;20428;-74
2023/05/04 12:14:23;;;;;;;10.60;5.88;;;;;;;24.05;37.77;101442.25;5072390;28;20040;-74
2023/05/04 12:16:56;;;;;;;14.00;7.10;;;;;;;24.27;35.02;101442.53;5053962;28;20127;-75
2023/05/04 12:19:22;;;;;;;11.43;6.43;;;;;;;24.25;37.07;101438.44;5054297;28;20024;-74
2023/05/04 12:21:50;;;;;;;9.45;6.32;;;;;;;24.45;36.57;101437.44;5071398;28;20132;-76
2023/05/04 12:24:15;;;;;;;7.75;6.85;;;;;;;24.00;35.41;101426.72;5054585;28;20020;-75
2023/05/04 12:26:41;;;;;;;10.15;7.30;;;;;;;23.91;37.74;101424.88;5072046;28;20112;-75
2023/05/04 12:29:06;;;;;;;13.23;6.75;;;;;;;23.38;36.42;101413.88;5071238;28;20378;-74
2023/05/04 12:31:32;;;;;;;11.97;6.80;;;;;;;23.56;39.06;101415.13;5071190;28;20111;-75
2023/05/04 12:33:57;;;;;;;13.07;6.65;;;;;;;23.67;36.29;101422.13;5053449;28;20330;-75